createdAt,value
2022-11-21T00:01:34.329Z,1.10
2022-11-21T00:04:01.274Z,1.80
2022-11-21T00:06:28.220Z,2.53
2022-11-21T00:08:56.462Z,2.90
2022-11-21T00:11:23.498Z,2.70
2022-11-21T00:13:50.373Z,3.28
2022-11-21T00:16:17.433Z,3.60
2022-11-21T00:18:44.679Z,4.20
2022-11-21T00:21:17.098Z,3.67
2022-11-21T00:23:45.715Z,4.38
2022-11-21T00:26:14.477Z,4.32
2022-11-21T00:28:41.830Z,4.07
2022-11-21T00:31:09.029Z,4.10
2022-11-21T00:33:37.215Z,3.78
2022-11-21T00:36:08.973Z,4.65
2022-11-21T00:38:36.854Z,2.80
2022-11-21T00:41:04.435Z,2.40
2022-11-21T00:43:31.363Z,2.75
2022-11-21T00:46:01.462Z,2.35
2022-11-21T00:48:30.061Z,2.25
2022-11-21T00:50:57.629Z,2.45
2022-11-21T00:53:24.477Z,2.58
2022-11-21T00:55:51.272Z,2.90
2022-11-21T00:58:18.017Z,3.10
2022-11-21T01:00:45.005Z,3.15
2022-11-21T01:03:11.997Z,2.70
2022-11-21T01:05:38.841Z,2.83
2022-11-21T01:08:06.071Z,2.90
2022-11-21T01:10:35.545Z,2.58
2022-11-21T01:13:02.882Z,2.58
2022-11-21T01:15:29.792Z,1.98
2022-11-21T01:17:56.733Z,2.30
2022-11-21T01:20:23.709Z,2.08
2022-11-21T01:22:50.693Z,1.95
2022-11-21T01:25:17.564Z,2.80
2022-11-21T01:27:44.541Z,3.05
2022-11-21T01:30:12.165Z,2.90
2022-11-21T01:32:39.171Z,3.15
2022-11-21T01:35:06.508Z,3.25
2022-11-21T01:37:33.442Z,3.42
2022-11-21T01:40:00.336Z,3.45
2022-11-21T01:42:27.282Z,3.67
2022-11-21T01:44:54.734Z,4.20
2022-11-21T01:47:22.948Z,3.88
2022-11-21T01:49:52.425Z,3.90
2022-11-21T01:52:27.082Z,3.95
2022-11-21T01:54:59.257Z,3.55
2022-11-21T01:57:35.538Z,4.03
2022-11-21T02:00:21.755Z,3.95
2022-11-21T02:02:54.096Z,3.33
2022-11-21T02:05:26.160Z,4.07
2022-11-21T02:07:57.541Z,4.35
2022-11-21T02:10:25.087Z,4.97
2022-11-21T02:12:54.140Z,4.97
2022-11-21T02:15:24.908Z,4.88
2022-11-21T02:17:51.968Z,5.00
2022-11-21T02:20:21.067Z,5.50
2022-11-21T02:23:06.149Z,6.28
2022-11-21T02:25:43.348Z,7.97
2022-11-21T02:28:13.678Z,8.57
2022-11-21T02:30:42.289Z,10.90
2022-11-21T02:33:10.413Z,10.35
2022-11-21T02:35:37.473Z,11.82
2022-11-21T02:38:08.267Z,11.30
2022-11-21T02:40:40.289Z,11.57
2022-11-21T02:43:22.754Z,11.38
2022-11-21T02:45:49.933Z,13.00
2022-11-21T02:48:16.952Z,13.07
2022-11-21T02:50:46.088Z,10.60
2022-11-21T02:53:18.400Z,9.43
2022-11-21T02:55:45.925Z,8.85
2022-11-21T02:58:13.115Z,8.20
2022-11-21T03:00:41.620Z,6.78
2022-11-21T03:03:09.045Z,7.00
2022-11-21T03:05:36.119Z,7.55
2022-11-21T03:08:04.214Z,9.95
2022-11-21T03:10:31.150Z,7.78
2022-11-21T03:13:04.056Z,9.15
2022-11-21T03:15:33.481Z,10.18
2022-11-21T03:18:03.101Z,9.27
2022-11-21T03:20:34.698Z,11.88
2022-11-21T03:23:02.548Z,11.60
2022-11-21T03:25:29.354Z,11.38
2022-11-21T03:27:56.417Z,12.80
2022-11-21T03:30:24.913Z,14.75
2022-11-21T03:32:51.977Z,15.90
2022-11-21T03:35:18.740Z,19.38
2022-11-21T03:37:48.187Z,19.73
2022-11-21T03:40:14.974Z,17.25
2022-11-21T03:42:41.953Z,19.17
2022-11-21T03:45:09.328Z,17.95
2022-11-21T03:47:36.066Z,17.98
2022-11-21T03:50:03.077Z,19.50
2022-11-21T03:52:30.706Z,17.27
2022-11-21T03:54:57.460Z,17.42
2022-11-21T03:57:24.331Z,17.40
2022-11-21T03:59:51.380Z,19.00
2022-11-21T04:02:18.223Z,17.00
2022-11-21T04:04:45.128Z,17.02
2022-11-21T04:07:12.129Z,16.38
2022-11-21T04:09:38.949Z,16.65
2022-11-21T04:12:07.884Z,15.02
2022-11-21T04:14:35.181Z,14.95
2022-11-21T04:17:02.224Z,15.68
2022-11-21T04:19:29.177Z,15.27
2022-11-21T04:21:55.973Z,15.50
2022-11-21T04:24:22.833Z,15.13
2022-11-21T04:26:49.978Z,14.20
2022-11-21T04:29:16.894Z,15.27
2022-11-21T04:31:43.922Z,14.27
2022-11-21T04:34:10.881Z,14.98
2022-11-21T04:36:38.510Z,14.48
2022-11-21T04:39:05.514Z,13.98
2022-11-21T04:41:32.461Z,14.85
2022-11-21T04:43:59.733Z,14.25
2022-11-21T04:46:26.828Z,14.18
2022-11-21T04:48:53.686Z,14.63
2022-11-21T04:51:20.560Z,16.15
2022-11-21T04:53:47.530Z,14.18
2022-11-21T04:56:16.701Z,14.43
2022-11-21T04:58:44.955Z,15.27
2022-11-21T05:01:12.393Z,14.52
2022-11-21T05:03:39.896Z,13.40
2022-11-21T05:06:06.571Z,15.10
2022-11-21T05:08:33.391Z,14.45
2022-11-21T05:11:18.414Z,13.38
2022-11-21T05:13:45.164Z,14.18
2022-11-21T05:16:12.032Z,12.40
2022-11-21T05:18:39.132Z,12.93
2022-11-21T05:21:06.013Z,13.52
2022-11-21T05:23:32.999Z,12.23
2022-11-21T05:25:59.902Z,10.73
2022-11-21T05:28:26.987Z,12.52
2022-11-21T05:30:53.980Z,10.52
2022-11-21T05:33:21.066Z,10.77
2022-11-21T05:35:47.766Z,10.85
2022-11-21T05:38:14.708Z,10.77
2022-11-21T05:40:41.668Z,9.98
2022-11-21T05:43:30.537Z,10.30
2022-11-21T05:45:57.240Z,10.73
2022-11-21T05:48:24.294Z,9.32
2022-11-21T05:50:51.683Z,9.27
2022-11-21T05:53:18.975Z,9.80
2022-11-21T05:55:46.561Z,9.65
2022-11-21T05:58:14.130Z,9.43
2022-11-21T06:00:41.126Z,9.27
2022-11-21T06:03:28.839Z,9.20
2022-11-21T06:05:58.968Z,9.15
2022-11-21T06:08:27.021Z,8.35
2022-11-21T06:10:54.615Z,9.13
2022-11-21T06:13:24.129Z,8.00
2022-11-21T06:15:56.991Z,8.57
2022-11-21T06:18:24.089Z,9.20
2022-11-21T06:20:51.142Z,8.25
2022-11-21T06:23:17.832Z,8.90
2022-11-21T06:25:44.716Z,8.65
2022-11-21T06:28:12.163Z,8.32
2022-11-21T06:30:39.134Z,8.65
2022-11-21T06:33:07.077Z,9.02
2022-11-21T06:35:37.550Z,9.82
2022-11-21T06:38:04.434Z,9.85
2022-11-21T06:40:31.182Z,10.02
2022-11-21T06:42:58.091Z,9.23
2022-11-21T06:45:26.427Z,9.70
2022-11-21T06:47:54.273Z,9.65
2022-11-21T06:50:21.170Z,9.25
2022-11-21T06:52:47.909Z,10.07
2022-11-21T06:55:15.303Z,9.07
2022-11-21T06:57:42.073Z,9.77
2022-11-21T07:00:09.342Z,9.90
2022-11-21T07:02:36.354Z,9.73
2022-11-21T07:05:03.140Z,10.00
2022-11-21T07:07:30.150Z,10.63
2022-11-21T07:09:57.103Z,10.60
2022-11-21T07:12:42.953Z,11.00
2022-11-21T07:15:10.914Z,10.48
2022-11-21T07:17:37.879Z,10.40
2022-11-21T07:20:05.321Z,11.13
2022-11-21T07:22:32.196Z,12.15
2022-11-21T07:24:58.938Z,10.90
2022-11-21T07:27:25.848Z,11.75
2022-11-21T07:29:52.935Z,11.65
2022-11-21T07:32:19.991Z,11.55
2022-11-21T07:34:47.116Z,10.93
2022-11-21T07:37:14.222Z,10.98
2022-11-21T07:39:41.077Z,12.00
2022-11-21T07:42:07.998Z,11.00
2022-11-21T07:44:34.985Z,11.55
2022-11-21T07:47:01.800Z,10.98
2022-11-21T07:49:28.924Z,11.45
2022-11-21T07:51:56.005Z,11.07
2022-11-21T07:54:22.954Z,10.70
2022-11-21T07:56:49.885Z,10.48
2022-11-21T07:59:16.633Z,9.48
2022-11-21T08:01:45.632Z,9.32
2022-11-21T08:04:12.924Z,8.52
2022-11-21T08:06:39.755Z,8.30
2022-11-21T08:09:06.505Z,8.55
2022-11-21T08:11:35.785Z,9.40
2022-11-21T08:14:02.665Z,7.60
2022-11-21T08:16:33.106Z,7.80
2022-11-21T08:19:00.454Z,8.32
2022-11-21T08:21:27.440Z,7.60
2022-11-21T08:23:55.317Z,7.32
2022-11-21T08:26:22.166Z,7.25
2022-11-21T08:28:48.918Z,6.97
2022-11-21T08:31:15.780Z,6.95
2022-11-21T08:33:42.812Z,7.05
2022-11-21T08:36:10.029Z,7.57
2022-11-21T08:38:36.845Z,7.38
2022-11-21T08:41:30.125Z,7.13
2022-11-21T08:43:57.324Z,8.43
2022-11-21T08:46:32.481Z,7.80
2022-11-21T08:51:28.518Z,7.88
2022-11-21T08:53:55.269Z,7.88
2022-11-21T08:56:22.226Z,8.55
2022-11-21T08:58:49.346Z,8.32
2022-11-21T09:01:18.835Z,8.80
2022-11-21T09:03:46.541Z,8.82
2022-11-21T09:06:13.526Z,8.98
2022-11-21T09:08:40.418Z,10.20
2022-11-21T09:11:15.062Z,9.25
2022-11-21T09:13:42.273Z,9.25
2022-11-21T09:16:30.285Z,9.60
2022-11-21T09:18:57.273Z,8.80
2022-11-21T09:21:32.276Z,9.27
2022-11-21T09:26:32.040Z,9.13
2022-11-21T09:28:59.062Z,7.75
2022-11-21T09:31:31.955Z,8.52
2022-11-21T09:33:59.330Z,8.77
2022-11-21T09:36:26.526Z,8.07
2022-11-21T09:39:01.139Z,7.70
2022-11-21T09:41:50.082Z,6.97
2022-11-21T09:44:26.116Z,5.47
2022-11-21T09:47:02.779Z,5.78
2022-11-21T09:49:34.587Z,4.55
2022-11-21T09:52:02.260Z,4.93
2022-11-21T09:54:36.882Z,4.45
2022-11-21T09:57:03.998Z,4.05
2022-11-21T09:59:39.402Z,4.38
2022-11-21T10:02:18.210Z,4.30
2022-11-21T10:04:47.145Z,4.20
2022-11-21T10:07:22.351Z,4.00
2022-11-21T10:10:01.222Z,3.67
2022-11-21T10:12:58.419Z,2.78
2022-11-21T10:15:50.698Z,3.00
2022-11-21T10:18:28.117Z,2.90
2022-11-21T10:21:15.327Z,2.40
2022-11-21T10:24:15.262Z,2.40
2022-11-21T10:26:56.413Z,3.72
2022-11-21T10:29:26.240Z,4.13
2022-11-21T10:31:58.730Z,3.53
2022-11-21T10:34:32.778Z,4.43
2022-11-21T10:37:11.618Z,4.32
2022-11-21T10:39:44.271Z,5.03
2022-11-21T10:42:36.564Z,4.65
2022-11-21T10:45:16.601Z,5.20
2022-11-21T10:47:44.643Z,6.97
2022-11-21T10:50:30.046Z,6.93
2022-11-21T10:53:35.348Z,7.07
2022-11-21T10:56:09.616Z,7.07
2022-11-21T10:58:47.955Z,6.50
2022-11-21T11:01:35.564Z,8.43
2022-11-21T11:04:28.559Z,9.02
2022-11-21T11:06:57.022Z,9.57
2022-11-21T11:09:25.374Z,10.45
2022-11-21T11:11:52.449Z,10.60
2022-11-21T11:14:30.688Z,9.82
2022-11-21T11:16:58.664Z,10.55
2022-11-21T11:19:35.534Z,10.80
2022-11-21T11:22:27.741Z,11.25
2022-11-21T11:25:00.020Z,9.85
2022-11-21T11:27:29.168Z,9.65
2022-11-21T11:29:56.199Z,10.27
2022-11-21T11:32:24.058Z,10.57
2022-11-21T11:34:50.941Z,10.88
2022-11-21T11:37:26.179Z,10.20
2022-11-21T11:40:14.131Z,10.15
2022-11-21T11:43:06.239Z,10.75
2022-11-21T11:46:15.684Z,10.23
2022-11-21T11:49:11.352Z,10.18
2022-11-21T11:51:42.916Z,10.80
2022-11-21T11:54:24.663Z,8.80
2022-11-21T11:56:51.722Z,10.20
2022-11-21T11:59:28.735Z,9.55
2022-11-21T12:02:13.371Z,9.85
2022-11-21T12:04:50.684Z,7.57
2022-11-21T12:08:20.044Z,10.35
2022-11-21T12:10:17.370Z,10.07
2022-11-21T12:12:54.531Z,10.05
2022-11-21T12:15:49.177Z,10.45
2022-11-21T12:18:16.169Z,7.82
2022-11-21T12:21:07.919Z,10.55
2022-11-21T12:23:44.580Z,10.77
2022-11-21T12:26:20.321Z,10.98
2022-11-21T12:29:17.855Z,11.68
2022-11-21T12:32:02.473Z,10.05
2022-11-21T12:35:06.684Z,11.95
2022-11-21T12:37:42.824Z,10.77
2022-11-21T12:40:35.199Z,10.98
2022-11-21T12:43:33.199Z,11.50
2022-11-21T12:46:09.066Z,10.80
2022-11-21T12:48:57.667Z,11.38
2022-11-21T12:52:03.802Z,10.15
2022-11-21T12:54:47.459Z,11.40
2022-11-21T12:57:19.371Z,9.82
2022-11-21T13:00:09.966Z,10.05
2022-11-21T13:03:06.313Z,10.23
2022-11-21T13:05:37.849Z,10.23
2022-11-21T13:08:17.572Z,9.40
2022-11-21T13:11:26.135Z,9.68
2022-11-21T13:14:03.642Z,8.93
2022-11-21T13:16:39.687Z,8.73
2022-11-21T13:19:32.152Z,8.85
2022-11-21T13:22:03.667Z,8.80
2022-11-21T13:24:47.247Z,8.18
2022-11-21T13:27:40.824Z,8.63
2022-11-21T13:30:07.653Z,8.82
2022-11-21T13:32:38.842Z,8.77
2022-11-21T13:35:15.089Z,8.93
2022-11-21T13:38:03.259Z,7.88
2022-11-21T13:40:30.180Z,8.57
2022-11-21T13:43:34.572Z,7.72
2022-11-21T13:46:06.249Z,7.95
2022-11-21T13:48:41.520Z,7.53
2022-11-21T13:51:29.749Z,8.13
2022-11-21T13:54:21.418Z,7.25
2022-11-21T13:57:27.161Z,7.70
2022-11-21T14:00:19.520Z,7.00
2022-11-21T14:02:49.993Z,6.70
2022-11-21T14:05:32.155Z,7.30
2022-11-21T14:08:27.160Z,7.88
2022-11-21T14:10:56.441Z,6.78
2022-11-21T14:13:33.646Z,7.40
2022-11-21T14:16:15.716Z,7.20
2022-11-21T14:18:47.263Z,6.57
2022-11-21T14:21:32.859Z,6.35
2022-11-21T14:24:05.034Z,6.57
2022-11-21T14:26:39.613Z,6.40
2022-11-21T14:29:37.889Z,6.38
2022-11-21T14:32:05.337Z,5.70
2022-11-21T14:34:33.889Z,6.25
2022-11-21T14:37:05.156Z,6.57
2022-11-21T14:39:39.714Z,6.63
2022-11-21T14:42:16.458Z,6.15
2022-11-21T14:44:43.861Z,7.15
2022-11-21T14:47:25.336Z,6.47
2022-11-21T14:49:54.835Z,6.53
2022-11-21T14:52:26.557Z,5.70
2022-11-21T14:57:46.659Z,6.32
2022-11-21T15:00:51.325Z,6.07
2022-11-21T15:03:19.808Z,6.20
2022-11-21T15:06:01.875Z,6.22
2022-11-21T15:11:22.952Z,5.65
2022-11-21T15:14:15.899Z,5.85
2022-11-21T15:16:47.286Z,5.72
2022-11-21T15:19:26.845Z,6.07
2022-11-21T15:21:56.594Z,5.82
2022-11-21T15:24:44.579Z,6.63
2022-11-21T15:27:27.714Z,5.95
2022-11-21T15:30:09.680Z,5.65
2022-11-21T15:33:18.504Z,5.72
2022-11-21T15:35:52.763Z,6.53
2022-11-21T15:41:27.110Z,6.72
2022-11-21T15:44:10.582Z,6.63
2022-11-21T15:46:49.812Z,6.25
2022-11-21T15:49:36.389Z,6.78
2022-11-21T15:52:12.481Z,5.78
2022-11-21T15:54:48.538Z,6.43
2022-11-21T15:59:45.557Z,5.38
2022-11-21T16:02:17.883Z,5.85
2022-11-21T16:04:44.678Z,6.65
2022-11-21T16:07:11.512Z,6.32
2022-11-21T16:09:48.094Z,6.18
2022-11-21T16:12:14.982Z,5.45
2022-11-21T16:14:42.721Z,6.18
2022-11-21T16:17:09.588Z,5.97
2022-11-21T16:19:36.218Z,5.03
2022-11-21T16:22:02.893Z,5.57
2022-11-21T16:24:30.179Z,5.55
2022-11-21T16:26:57.619Z,6.50
2022-11-21T16:29:25.163Z,5.70
2022-11-21T16:31:52.642Z,5.78
2022-11-21T16:34:20.320Z,5.60
2022-11-21T16:36:47.779Z,5.75
2022-11-21T16:39:18.180Z,5.75
2022-11-21T16:41:46.797Z,5.30
2022-11-21T16:44:15.764Z,6.05
2022-11-21T16:46:47.313Z,5.93
2022-11-21T16:49:17.735Z,5.55
2022-11-21T16:51:47.133Z,5.93
2022-11-21T16:54:14.817Z,6.38
2022-11-21T16:56:41.613Z,6.32
2022-11-21T16:59:08.546Z,6.30
2022-11-21T17:01:35.806Z,5.75
2022-11-21T17:04:02.801Z,5.82
2022-11-21T17:06:31.074Z,6.20
2022-11-21T17:09:02.222Z,6.05
2022-11-21T17:11:31.613Z,5.82
2022-11-21T17:14:04.094Z,6.13
2022-11-21T17:16:32.195Z,5.93
2022-11-21T17:19:02.384Z,6.07
2022-11-21T17:21:30.558Z,5.85
2022-11-21T17:23:58.130Z,6.60
2022-11-21T17:26:27.354Z,5.93
2022-11-21T17:28:59.320Z,6.32
2022-11-21T17:31:31.429Z,6.90
2022-11-21T17:34:01.348Z,6.80
2022-11-21T17:36:30.794Z,6.95
2022-11-21T17:38:58.010Z,7.28
2022-11-21T17:41:27.999Z,5.97
2022-11-21T17:43:59.190Z,6.15
2022-11-21T17:46:26.971Z,6.30
2022-11-21T17:48:59.186Z,5.93
2022-11-21T17:51:33.500Z,7.00
2022-11-21T17:54:01.779Z,6.28
2022-11-21T17:56:31.273Z,7.55
2022-11-21T17:58:58.470Z,6.65
2022-11-21T18:01:25.882Z,7.35
2022-11-21T18:04:01.207Z,6.80
2022-11-21T18:06:32.368Z,7.22
2022-11-21T18:08:59.607Z,7.78
2022-11-21T18:11:39.270Z,7.13
2022-11-21T18:14:09.753Z,7.07
2022-11-21T18:16:36.636Z,7.28
2022-11-21T18:19:04.293Z,6.90
2022-11-21T18:21:33.470Z,7.82
2022-11-21T18:24:00.566Z,8.05
2022-11-21T18:26:29.763Z,7.60
2022-11-21T18:29:20.597Z,7.40
2022-11-21T18:31:45.818Z,7.03
2022-11-21T18:34:12.859Z,8.20
2022-11-21T18:36:39.798Z,8.32
2022-11-21T18:39:14.580Z,8.75
2022-11-21T18:41:43.380Z,8.02
2022-11-21T18:44:10.574Z,8.50
2022-11-21T18:46:38.743Z,8.30
2022-11-21T18:49:07.227Z,7.55
2022-11-21T18:51:36.050Z,8.98
2022-11-21T18:54:08.849Z,8.13
2022-11-21T18:56:37.548Z,8.13
2022-11-21T18:59:06.429Z,8.02
2022-11-21T19:01:35.767Z,8.50
2022-11-21T19:04:02.807Z,8.15
2022-11-21T19:06:29.854Z,8.75
2022-11-21T19:08:58.238Z,8.40
2022-11-21T19:11:27.631Z,8.20
2022-11-21T19:13:55.880Z,8.43
2022-11-21T19:16:25.098Z,8.18
2022-11-21T19:21:42.032Z,7.28
2022-11-21T19:24:13.833Z,6.97
2022-11-21T19:26:41.572Z,6.53
2022-11-21T19:29:09.579Z,7.18
2022-11-21T19:31:44.251Z,6.70
2022-11-21T19:34:14.006Z,5.28
2022-11-21T19:36:41.275Z,6.13
2022-11-21T19:39:09.049Z,5.97
2022-11-21T19:41:38.990Z,5.95
2022-11-21T19:44:06.415Z,5.85
2022-11-21T19:46:35.686Z,6.75
2022-11-21T19:49:03.923Z,6.53
2022-11-21T19:51:35.954Z,7.60
2022-11-21T19:54:08.473Z,8.15
2022-11-21T19:56:36.177Z,7.70
2022-11-21T19:59:03.518Z,8.70
2022-11-21T20:01:32.926Z,7.85
2022-11-21T20:04:02.701Z,8.30
2022-11-21T20:06:33.262Z,9.18
2022-11-21T20:09:03.057Z,7.45
2022-11-21T20:11:31.780Z,7.00
2022-11-21T20:14:02.114Z,7.22
2022-11-21T20:16:48.241Z,6.82
2022-11-21T20:19:18.223Z,6.35
2022-11-21T20:21:46.376Z,7.75
2022-11-21T20:24:13.600Z,5.78
2022-11-21T20:26:42.609Z,6.43
2022-11-21T20:29:17.156Z,5.28
2022-11-21T20:31:44.471Z,4.70
2022-11-21T20:34:15.528Z,4.38
2022-11-21T20:36:44.040Z,4.38
2022-11-21T20:39:18.258Z,4.03
2022-11-21T20:41:47.584Z,4.07
2022-11-21T20:47:06.762Z,4.28
2022-11-21T20:49:34.012Z,4.45
2022-11-21T20:54:54.894Z,4.07
2022-11-21T20:57:21.949Z,3.45
2022-11-21T20:59:48.624Z,2.90
2022-11-21T21:02:15.912Z,2.78
2022-11-21T21:04:43.305Z,3.50
2022-11-21T21:07:10.546Z,3.55
2022-11-21T21:09:37.624Z,3.38
2022-11-21T21:12:05.706Z,4.38
2022-11-21T21:14:32.641Z,4.47
2022-11-21T21:17:00.729Z,5.55
2022-11-21T21:19:28.277Z,5.65
2022-11-21T21:21:55.439Z,5.75
2022-11-21T21:24:22.486Z,6.43
2022-11-21T21:26:50.108Z,6.72
2022-11-21T21:29:19.580Z,6.63
2022-11-21T21:31:50.964Z,6.80
2022-11-21T21:34:18.920Z,7.20
2022-11-21T21:36:45.998Z,7.05
2022-11-21T21:39:13.073Z,7.97
2022-11-21T21:41:41.984Z,7.10
2022-11-21T21:44:08.911Z,8.23
2022-11-21T21:46:41.109Z,8.60
2022-11-21T21:49:11.354Z,7.85
2022-11-21T21:51:38.209Z,8.35
2022-11-21T21:54:07.637Z,9.77
2022-11-21T21:56:37.708Z,9.25
2022-11-21T21:59:04.710Z,8.57
2022-11-21T22:01:33.080Z,8.43
2022-11-21T22:04:02.824Z,10.20
2022-11-21T22:06:32.583Z,9.07
2022-11-21T22:08:59.446Z,10.15
2022-11-21T22:11:36.068Z,10.63
2022-11-21T22:14:05.953Z,9.73
2022-11-21T22:16:32.949Z,10.20
2022-11-21T22:19:00.109Z,10.63
2022-11-21T22:21:29.963Z,10.23
2022-11-21T22:26:46.429Z,10.90
2022-11-21T22:29:15.404Z,9.88
2022-11-21T22:31:42.350Z,9.75
2022-11-21T22:34:12.759Z,11.50
2022-11-21T22:36:39.789Z,8.10
2022-11-21T22:39:06.838Z,9.82
2022-11-21T22:41:34.447Z,11.43
2022-11-21T22:44:01.453Z,9.70
2022-11-21T22:46:32.238Z,10.27
2022-11-21T22:48:59.556Z,10.07
2022-11-21T22:51:29.777Z,9.93
2022-11-21T22:53:59.791Z,9.55
2022-11-21T22:56:27.375Z,10.35
2022-11-21T22:58:54.907Z,10.75
2022-11-21T23:01:28.230Z,10.65
2022-11-21T23:03:58.816Z,9.20
2022-11-21T23:06:29.869Z,9.75
2022-11-21T23:08:57.601Z,8.73
2022-11-21T23:11:28.265Z,9.20
2022-11-21T23:13:58.682Z,9.98
2022-11-21T23:16:26.417Z,8.90
2022-11-21T23:18:57.699Z,9.18
2022-11-21T23:21:24.680Z,8.05
2022-11-21T23:23:53.200Z,8.65
2022-11-21T23:26:20.953Z,8.52
2022-11-21T23:28:48.055Z,8.95
2022-11-21T23:31:14.967Z,9.00
2022-11-21T23:33:41.965Z,7.10
2022-11-21T23:36:11.316Z,6.50
2022-11-21T23:38:38.285Z,7.30
2022-11-21T23:41:17.255Z,6.78
2022-11-21T23:43:43.937Z,7.63
2022-11-21T23:46:13.734Z,6.70
2022-11-21T23:48:43.104Z,6.88
2022-11-21T23:51:09.943Z,6.43
2022-11-21T23:53:39.979Z,6.82
2022-11-21T23:56:06.833Z,7.32
2022-11-21T23:58:33.949Z,6.35
